createdAt,value
2024-01-05T00:01:22.887Z,65.67
2024-01-05T00:04:24.920Z,65.85
2024-01-05T00:07:26.570Z,66.08
2024-01-05T00:10:28.174Z,65.60
2024-01-05T00:13:29.789Z,65.98
2024-01-05T00:16:31.491Z,65.88
2024-01-05T00:19:33.390Z,66.13
2024-01-05T00:22:36.083Z,65.85
2024-01-05T00:25:37.700Z,65.58
2024-01-05T00:28:39.257Z,65.88
2024-01-05T00:31:41.046Z,65.74
2024-01-05T00:34:42.686Z,65.63
2024-01-05T00:37:44.310Z,65.69
2024-01-05T00:40:45.898Z,65.94
2024-01-05T00:43:47.538Z,65.84
2024-01-05T00:46:49.133Z,65.94
2024-01-05T00:49:50.750Z,65.90
2024-01-05T00:52:52.381Z,66.37
2024-01-05T00:55:54.004Z,66.05
2024-01-05T00:58:55.560Z,66.09
2024-01-05T01:01:58.137Z,66.34
2024-01-05T01:05:00.769Z,66.33
2024-01-05T01:08:02.565Z,66.42
2024-01-05T01:11:04.741Z,66.36
2024-01-05T01:14:06.658Z,66.27
2024-01-05T01:17:08.177Z,66.13
2024-01-05T01:20:10.081Z,66.28
2024-01-05T01:23:11.744Z,66.22
2024-01-05T01:26:13.341Z,66.24
2024-01-05T01:29:14.858Z,66.04
2024-01-05T01:32:16.430Z,65.91
2024-01-05T01:35:18.058Z,66.10
2024-01-05T01:38:19.636Z,65.93
2024-01-05T01:41:21.220Z,65.89
2024-01-05T01:44:22.762Z,65.98
2024-01-05T01:47:24.410Z,66.06
2024-01-05T01:50:26.098Z,65.95
2024-01-05T01:53:28.984Z,65.93
2024-01-05T01:56:32.764Z,66.00
2024-01-05T01:59:34.694Z,65.94
2024-01-05T02:02:37.712Z,65.95
2024-01-05T02:05:39.400Z,65.90
2024-01-05T02:08:41.386Z,66.10
2024-01-05T02:11:43.201Z,66.14
2024-01-05T02:14:45.594Z,66.21
2024-01-05T02:17:47.314Z,65.80
2024-01-05T02:20:49.097Z,66.10
2024-01-05T02:23:50.902Z,66.16
2024-01-05T02:26:53.632Z,66.26
2024-01-05T02:29:55.325Z,66.23
2024-01-05T02:32:57.041Z,66.07
2024-01-05T02:35:58.673Z,66.26
2024-01-05T02:39:00.382Z,66.38
2024-01-05T02:42:02.222Z,66.24
2024-01-05T02:45:04.362Z,66.28
2024-01-05T02:48:09.892Z,66.41
2024-01-05T02:51:12.591Z,66.26
2024-01-05T02:54:15.796Z,66.33
2024-01-05T02:57:17.475Z,66.61
2024-01-05T03:00:19.446Z,66.55
2024-01-05T03:03:22.385Z,66.67
2024-01-05T03:06:24.629Z,66.62
2024-01-05T03:09:26.255Z,66.43
2024-01-05T03:12:27.941Z,66.75
2024-01-05T03:15:29.592Z,66.97
2024-01-05T03:18:31.354Z,66.74
2024-01-05T03:21:33.182Z,67.09
2024-01-05T03:24:35.752Z,66.99
2024-01-05T03:27:37.736Z,67.01
2024-01-05T03:30:39.701Z,66.99
2024-01-05T03:33:42.869Z,67.10
2024-01-05T03:36:44.776Z,67.01
2024-01-05T03:39:46.553Z,66.79
2024-01-05T03:42:48.114Z,67.27
2024-01-05T03:45:49.711Z,66.83
2024-01-05T03:48:51.367Z,66.83
2024-01-05T03:51:53.032Z,67.04
2024-01-05T03:54:54.964Z,66.86
2024-01-05T03:57:56.534Z,66.53
2024-01-05T04:00:58.195Z,66.77
2024-01-05T04:04:00.494Z,66.63
2024-01-05T04:07:02.523Z,66.59
2024-01-05T04:10:04.455Z,66.50
2024-01-05T04:13:06.245Z,66.44
2024-01-05T04:16:08.251Z,66.52
2024-01-05T04:19:10.734Z,66.57
2024-01-05T04:22:12.532Z,66.41
2024-01-05T04:25:14.084Z,66.58
2024-01-05T04:28:15.692Z,66.64
2024-01-05T04:31:17.398Z,66.36
2024-01-05T04:34:19.108Z,66.73
2024-01-05T04:37:20.699Z,66.17
2024-01-05T04:40:22.726Z,66.57
2024-01-05T04:43:24.292Z,66.40
2024-01-05T04:46:25.842Z,66.24
2024-01-05T04:49:27.602Z,66.46
2024-01-05T04:52:29.508Z,66.43
2024-01-05T04:55:31.082Z,66.28
2024-01-05T04:58:32.737Z,66.65
2024-01-05T05:01:34.540Z,66.45
2024-01-05T05:04:36.294Z,66.38
2024-01-05T05:07:37.899Z,66.60
2024-01-05T05:10:39.630Z,66.67
2024-01-05T05:13:41.210Z,66.40
2024-01-05T05:16:42.805Z,67.00
2024-01-05T05:19:44.474Z,66.92
2024-01-05T05:22:46.123Z,66.93
2024-01-05T05:25:47.664Z,67.22
2024-01-05T05:28:49.227Z,67.52
2024-01-05T05:31:50.752Z,67.83
2024-01-05T05:34:53.427Z,67.56
2024-01-05T05:37:56.653Z,67.30
2024-01-05T05:40:58.321Z,67.56
2024-01-05T05:43:59.898Z,67.50
2024-01-05T05:47:01.555Z,67.69
2024-01-05T05:50:07.124Z,67.69
2024-01-05T05:53:11.110Z,67.37
2024-01-05T05:56:12.694Z,67.35
2024-01-05T05:59:14.280Z,67.46
2024-01-05T06:02:15.809Z,67.41
2024-01-05T06:05:17.468Z,67.28
2024-01-05T06:08:19.024Z,67.28
2024-01-05T06:11:20.804Z,67.25
2024-01-05T06:14:22.609Z,67.20
2024-01-05T06:17:24.201Z,67.23
2024-01-05T06:20:26.200Z,67.01
2024-01-05T06:23:27.917Z,66.85
2024-01-05T06:26:29.536Z,66.92
2024-01-05T06:29:31.135Z,66.70
2024-01-05T06:32:32.713Z,66.87
2024-01-05T06:35:34.359Z,66.40
2024-01-05T06:38:35.937Z,66.37
2024-01-05T06:41:37.662Z,66.12
2024-01-05T06:44:39.174Z,66.12
2024-01-05T06:47:40.774Z,66.06
2024-01-05T06:50:42.542Z,66.06
2024-01-05T06:53:44.212Z,66.01
2024-01-05T06:56:45.892Z,65.82
2024-01-05T06:59:47.540Z,65.73
2024-01-05T07:02:49.084Z,65.70
2024-01-05T07:05:50.666Z,65.49
2024-01-05T07:08:52.205Z,65.65
2024-01-05T07:11:54.110Z,65.45
2024-01-05T07:14:55.839Z,65.43
2024-01-05T07:17:57.537Z,65.42
2024-01-05T07:21:04.356Z,65.33
2024-01-05T07:24:06.068Z,65.28
2024-01-05T07:27:07.944Z,64.95
2024-01-05T07:30:10.192Z,65.42
2024-01-05T07:33:11.987Z,65.47
2024-01-05T07:36:13.750Z,65.41
2024-01-05T07:39:16.356Z,65.68
2024-01-05T07:42:18.093Z,65.59
2024-01-05T07:45:20.129Z,65.79
2024-01-05T07:48:22.911Z,65.36
2024-01-05T07:51:25.059Z,65.82
2024-01-05T07:54:26.998Z,65.85
2024-01-05T07:57:28.830Z,66.00
2024-01-05T08:00:32.354Z,65.92
2024-01-05T08:03:34.125Z,65.71
2024-01-05T08:06:35.906Z,65.81
2024-01-05T08:09:37.577Z,65.90
2024-01-05T08:12:39.324Z,65.81
2024-01-05T08:15:41.032Z,65.83
2024-01-05T08:18:43.010Z,66.22
2024-01-05T08:21:45.197Z,65.71
2024-01-05T08:24:47.747Z,65.77
2024-01-05T08:27:49.561Z,65.86
2024-01-05T08:30:52.598Z,65.87
2024-01-05T08:33:55.745Z,65.86
2024-01-05T08:36:57.405Z,65.71
2024-01-05T08:39:59.163Z,65.79
2024-01-05T08:43:01.056Z,65.85
2024-01-05T08:46:03.155Z,65.74
2024-01-05T08:49:05.685Z,66.05
2024-01-05T08:52:07.524Z,65.90
2024-01-05T08:55:09.245Z,65.88
2024-01-05T08:58:11.654Z,65.85
2024-01-05T09:01:13.349Z,65.98
2024-01-05T09:04:16.275Z,66.05
2024-01-05T09:07:17.922Z,65.90
2024-01-05T09:10:19.496Z,65.92
2024-01-05T09:13:21.110Z,65.96
2024-01-05T09:16:23.976Z,65.93
2024-01-05T09:19:26.372Z,65.88
2024-01-05T09:22:28.197Z,65.87
2024-01-05T09:25:30.495Z,65.68
2024-01-05T09:28:32.045Z,65.79
2024-01-05T09:31:33.767Z,65.79
2024-01-05T09:34:35.492Z,65.81
2024-01-05T09:37:37.358Z,65.79
2024-01-05T09:40:39.114Z,65.76
2024-01-05T09:43:43.698Z,65.83
2024-01-05T09:46:45.868Z,65.74
2024-01-05T09:49:51.050Z,65.77
2024-01-05T09:52:53.386Z,65.64
2024-01-05T09:55:55.681Z,65.81
2024-01-05T09:58:57.360Z,65.71
2024-01-05T10:02:05.461Z,65.47
2024-01-05T10:05:07.382Z,65.54
2024-01-05T10:08:09.721Z,65.48
2024-01-05T10:11:11.263Z,65.40
2024-01-05T10:14:14.353Z,65.49
2024-01-05T10:17:19.580Z,65.13
2024-01-05T10:20:21.445Z,65.13
2024-01-05T10:23:23.062Z,65.03
2024-01-05T10:26:24.657Z,64.83
2024-01-05T10:29:26.211Z,64.99
2024-01-05T10:32:27.763Z,64.92
2024-01-05T10:35:31.582Z,64.84
2024-01-05T10:38:33.630Z,64.79
2024-01-05T10:41:35.618Z,64.72
2024-01-05T10:44:37.362Z,64.73
2024-01-05T10:47:39.581Z,64.65
2024-01-05T10:50:45.101Z,64.52
2024-01-05T10:53:48.275Z,64.82
2024-01-05T10:56:55.093Z,64.78
2024-01-05T10:59:57.535Z,64.67
2024-01-05T11:03:15.147Z,64.91
2024-01-05T11:06:17.540Z,64.96
2024-01-05T11:09:39.527Z,64.79
2024-01-05T11:12:44.346Z,64.75
2024-01-05T11:16:10.357Z,64.88
2024-01-05T11:19:39.999Z,64.82
2024-01-05T11:22:47.245Z,64.73
2024-01-05T11:25:49.580Z,64.74
2024-01-05T11:28:55.429Z,64.84
2024-01-05T11:31:57.256Z,64.76
2024-01-05T11:34:59.064Z,64.86
2024-01-05T11:38:00.726Z,64.72
2024-01-05T11:41:16.128Z,64.65
2024-01-05T11:44:37.401Z,64.65
2024-01-05T11:47:48.619Z,64.71
2024-01-05T11:50:50.649Z,64.75
2024-01-05T11:53:52.381Z,64.88
2024-01-05T11:57:03.741Z,64.90
2024-01-05T12:00:06.236Z,65.06
2024-01-05T12:03:07.870Z,65.22
2024-01-05T12:06:13.762Z,65.35
2024-01-05T12:09:15.601Z,65.59
2024-01-05T12:12:18.269Z,65.49
2024-01-05T12:15:21.781Z,65.61
2024-01-05T12:18:34.332Z,65.76
2024-01-05T12:21:39.838Z,65.86
2024-01-05T12:24:41.524Z,65.77
2024-01-05T12:27:43.203Z,65.80
2024-01-05T12:30:45.208Z,65.86
2024-01-05T12:33:47.768Z,65.98
2024-01-05T12:36:49.536Z,65.99
2024-01-05T12:39:51.219Z,66.18
2024-01-05T12:42:56.335Z,66.44
2024-01-05T12:46:01.518Z,66.53
2024-01-05T12:49:27.251Z,66.63
2024-01-05T12:52:39.107Z,66.71
2024-01-05T12:55:40.875Z,66.94
2024-01-05T12:58:43.910Z,67.06
2024-01-05T13:01:45.483Z,66.83
2024-01-05T13:04:47.227Z,66.95
2024-01-05T13:07:48.769Z,66.93
2024-01-05T13:10:50.276Z,66.85
2024-01-05T13:13:52.302Z,66.88
2024-01-05T13:16:54.241Z,67.29
2024-01-05T13:19:55.867Z,67.20
2024-01-05T13:22:58.562Z,67.10
2024-01-05T13:26:01.324Z,67.01
2024-01-05T13:29:02.981Z,66.85
2024-01-05T13:32:05.520Z,66.95
2024-01-05T13:35:07.557Z,66.87
2024-01-05T13:38:09.272Z,66.79
2024-01-05T13:41:10.878Z,66.82
2024-01-05T13:44:12.490Z,66.80
2024-01-05T13:47:14.001Z,66.39
2024-01-05T13:50:15.930Z,66.59
2024-01-05T13:53:17.513Z,66.60
2024-01-05T13:56:19.273Z,66.29
2024-01-05T13:59:20.778Z,66.40
2024-01-05T14:02:22.586Z,66.43
2024-01-05T14:05:24.176Z,66.32
2024-01-05T14:08:25.887Z,66.13
2024-01-05T14:11:27.688Z,66.37
2024-01-05T14:14:29.313Z,66.33
2024-01-05T14:17:30.912Z,66.21
2024-01-05T14:20:32.540Z,66.28
2024-01-05T14:23:36.847Z,66.03
2024-01-05T14:26:39.749Z,66.47
2024-01-05T14:29:42.135Z,66.28
2024-01-05T14:32:43.825Z,66.29
2024-01-05T14:36:05.965Z,66.30
2024-01-05T14:39:07.712Z,66.13
2024-01-05T14:42:09.318Z,66.08
2024-01-05T14:45:10.977Z,65.99
2024-01-05T14:48:12.658Z,66.02
2024-01-05T14:51:14.511Z,66.20
2024-01-05T14:54:17.589Z,66.17
2024-01-05T14:57:19.243Z,66.07
2024-01-05T15:00:22.048Z,66.06
2024-01-05T15:03:32.728Z,65.86
2024-01-05T15:06:34.370Z,66.03
2024-01-05T15:09:37.474Z,65.71
2024-01-05T15:12:39.364Z,65.76
2024-01-05T15:15:41.069Z,65.91
2024-01-05T15:18:42.842Z,65.81
2024-01-05T15:21:44.663Z,65.93
2024-01-05T15:24:47.056Z,65.88
2024-01-05T15:27:50.324Z,65.93
2024-01-05T15:30:53.010Z,65.89
2024-01-05T15:33:57.065Z,66.08
2024-01-05T15:36:59.579Z,65.87
2024-01-05T15:40:01.823Z,65.88
2024-01-05T15:43:04.294Z,65.79
2024-01-05T15:46:09.232Z,65.74
2024-01-05T15:49:10.920Z,66.05
2024-01-05T15:52:12.596Z,65.83
2024-01-05T15:55:14.334Z,65.79
2024-01-05T15:58:15.977Z,65.62
2024-01-05T16:01:18.060Z,65.70
2024-01-05T16:04:19.904Z,65.72
2024-01-05T16:07:21.523Z,65.60
2024-01-05T16:10:23.263Z,65.82
2024-01-05T16:13:24.889Z,65.48
2024-01-05T16:16:27.999Z,65.62
2024-01-05T16:19:29.685Z,65.51
2024-01-05T16:22:31.449Z,65.49
2024-01-05T16:25:33.075Z,65.55
2024-01-05T16:28:34.930Z,65.43
2024-01-05T16:31:36.716Z,65.41
2024-01-05T16:34:38.549Z,65.35
2024-01-05T16:37:40.433Z,65.47
2024-01-05T16:40:42.085Z,65.51
2024-01-05T16:43:43.616Z,65.55
2024-01-05T16:46:45.279Z,65.40
2024-01-05T16:49:46.961Z,65.28
2024-01-05T16:52:48.728Z,65.06
2024-01-05T16:55:50.297Z,65.10
2024-01-05T16:58:54.175Z,64.96
2024-01-05T17:01:56.366Z,64.86
2024-01-05T17:04:58.356Z,64.75
2024-01-05T17:08:00.009Z,64.91
2024-01-05T17:11:02.645Z,64.88
2024-01-05T17:14:04.217Z,64.94
2024-01-05T17:17:08.594Z,65.09
2024-01-05T17:20:21.065Z,64.90
2024-01-05T17:23:26.503Z,64.91
2024-01-05T17:26:28.116Z,65.02
2024-01-05T17:29:31.815Z,65.21
2024-01-05T17:32:33.407Z,64.99
2024-01-05T17:35:35.371Z,64.92
2024-01-05T17:38:36.889Z,64.70
2024-01-05T17:41:40.080Z,65.02
2024-01-05T17:44:43.468Z,64.79
2024-01-05T17:47:45.335Z,64.76
2024-01-05T17:50:46.958Z,64.75
2024-01-05T17:53:49.563Z,65.05
2024-01-05T17:56:52.395Z,64.56
2024-01-05T17:59:54.101Z,64.53
2024-01-05T18:02:55.846Z,64.67
2024-01-05T18:05:57.524Z,64.51
2024-01-05T18:09:01.225Z,64.71
2024-01-05T18:12:02.922Z,64.84
2024-01-05T18:15:05.472Z,64.77
2024-01-05T18:18:08.500Z,64.81
2024-01-05T18:21:10.299Z,64.74
2024-01-05T18:24:13.016Z,64.63
2024-01-05T18:27:14.777Z,64.76
2024-01-05T18:30:16.701Z,64.91
2024-01-05T18:33:18.724Z,64.84
2024-01-05T18:36:20.534Z,64.97
2024-01-05T18:39:22.279Z,64.74
2024-01-05T18:42:24.840Z,64.62
2024-01-05T18:45:26.491Z,64.73
2024-01-05T18:48:28.328Z,64.63
2024-01-05T18:51:29.984Z,64.60
2024-01-05T18:54:31.714Z,64.30
2024-01-05T18:57:33.357Z,64.35
2024-01-05T19:00:44.645Z,64.54
2024-01-05T19:03:46.317Z,64.12
2024-01-05T19:06:48.163Z,64.40
2024-01-05T19:09:49.873Z,64.38
2024-01-05T19:12:51.541Z,64.23
2024-01-05T19:15:53.168Z,64.35
2024-01-05T19:18:54.937Z,64.38
2024-01-05T19:21:57.983Z,64.28
2024-01-05T19:24:59.916Z,64.33
2024-01-05T19:28:01.701Z,64.34
2024-01-05T19:31:05.394Z,64.13
2024-01-05T19:34:09.464Z,64.08
2024-01-05T19:37:11.333Z,64.06
2024-01-05T19:40:14.788Z,64.05
2024-01-05T19:43:16.746Z,63.99
2024-01-05T19:46:18.262Z,64.16
2024-01-05T19:49:20.183Z,64.03
2024-01-05T19:52:22.134Z,64.15
2024-01-05T19:55:24.027Z,63.97
2024-01-05T19:58:25.602Z,63.80
2024-01-05T20:01:32.280Z,63.88
2024-01-05T20:04:34.765Z,64.25
2024-01-05T20:07:36.493Z,63.81
2024-01-05T20:10:39.249Z,64.03
2024-01-05T20:13:40.909Z,63.66
2024-01-05T20:16:43.160Z,63.89
2024-01-05T20:19:45.491Z,63.95
2024-01-05T20:22:47.242Z,63.99
2024-01-05T20:25:48.894Z,63.79
2024-01-05T20:28:51.237Z,64.05
2024-01-05T20:31:54.336Z,63.91
2024-01-05T20:34:57.050Z,64.08
2024-01-05T20:37:59.607Z,64.15
2024-01-05T20:41:01.701Z,64.20
2024-01-05T20:44:03.326Z,64.15
2024-01-05T20:47:05.317Z,64.02
2024-01-05T20:50:07.698Z,63.97
2024-01-05T20:53:11.918Z,64.02
2024-01-05T20:56:14.481Z,64.56
2024-01-05T20:59:16.033Z,64.26
2024-01-05T21:02:17.845Z,64.32
2024-01-05T21:05:19.393Z,64.29
2024-01-05T21:08:21.007Z,64.57
2024-01-05T21:11:24.976Z,64.90
2024-01-05T21:14:26.817Z,64.94
2024-01-05T21:17:29.001Z,64.60
2024-01-05T21:20:30.654Z,65.34
2024-01-05T21:23:32.646Z,65.13
2024-01-05T21:26:34.256Z,65.06
2024-01-05T21:29:39.736Z,65.21
2024-01-05T21:32:41.407Z,65.32
2024-01-05T21:35:43.012Z,65.16
2024-01-05T21:38:44.597Z,65.48
2024-01-05T21:41:47.782Z,65.83
2024-01-05T21:44:51.305Z,65.39
2024-01-05T21:47:52.883Z,65.70
2024-01-05T21:50:54.524Z,65.65
2024-01-05T21:53:56.080Z,65.62
2024-01-05T21:56:58.757Z,65.41
2024-01-05T22:00:01.592Z,65.22
2024-01-05T22:03:06.155Z,65.47
2024-01-05T22:06:08.223Z,65.33
2024-01-05T22:09:10.151Z,65.39
2024-01-05T22:12:13.106Z,65.32
2024-01-05T22:15:14.955Z,65.30
2024-01-05T22:18:16.887Z,65.20
2024-01-05T22:21:19.704Z,65.40
2024-01-05T22:24:21.348Z,65.37
2024-01-05T22:27:24.000Z,65.64
2024-01-05T22:30:25.701Z,65.36
2024-01-05T22:33:27.535Z,65.41
2024-01-05T22:36:29.284Z,65.20
2024-01-05T22:39:30.875Z,64.75
2024-01-05T22:42:33.370Z,65.18
2024-01-05T22:45:35.620Z,65.13
2024-01-05T22:48:37.561Z,65.15
2024-01-05T22:51:39.470Z,65.08
2024-01-05T22:54:41.102Z,65.29
2024-01-05T22:57:42.979Z,65.23
2024-01-05T23:00:45.615Z,65.09
2024-01-05T23:03:48.308Z,65.24
2024-01-05T23:06:49.979Z,65.35
2024-01-05T23:09:52.197Z,65.45
2024-01-05T23:12:54.655Z,65.50
2024-01-05T23:15:56.434Z,65.50
2024-01-05T23:18:58.126Z,65.41
2024-01-05T23:21:59.782Z,65.86
2024-01-05T23:25:01.342Z,65.71
2024-01-05T23:28:03.115Z,65.81
2024-01-05T23:31:05.411Z,65.64
2024-01-05T23:34:15.124Z,65.82
2024-01-05T23:37:18.465Z,65.88
2024-01-05T23:40:20.430Z,65.97
2024-01-05T23:43:22.043Z,65.75
2024-01-05T23:46:23.669Z,65.99
2024-01-05T23:49:27.408Z,66.04
2024-01-05T23:52:29.109Z,66.35
2024-01-05T23:55:30.664Z,65.98
2024-01-05T23:58:32.319Z,65.95
